createdAt,value
2023-01-26T00:00:40.749Z,46.9
2023-01-26T00:04:40.754Z,51.8
2023-01-26T00:08:40.184Z,45.6
2023-01-26T00:12:40.951Z,51.27
2023-01-26T00:16:40.819Z,44.33
2023-01-26T00:20:41.213Z,38.53
2023-01-26T00:24:39.896Z,49.1
2023-01-26T00:28:40.720Z,49.5
2023-01-26T00:32:40.485Z,43.83
2023-01-26T00:36:40.960Z,41.47
2023-01-26T00:40:40.592Z,50.33
2023-01-26T00:44:39.988Z,41.2
2023-01-26T00:48:40.642Z,35.77
2023-01-26T00:52:40.531Z,40.63
2023-01-26T00:56:40.307Z,49.7
2023-01-26T01:00:39.463Z,43.93
2023-01-26T01:04:40.492Z,39.07
2023-01-26T01:08:40.361Z,50.47
2023-01-26T01:12:40.979Z,40.4
2023-01-26T01:16:40.602Z,43.1
2023-01-26T01:20:40.449Z,41.13
2023-01-26T01:24:40.661Z,37.53
2023-01-26T01:28:40.453Z,41.17
2023-01-26T01:32:39.695Z,49.63
2023-01-26T01:36:40.505Z,43.6
2023-01-26T01:40:40.774Z,43.7
2023-01-26T01:44:40.492Z,35.63
2023-01-26T01:48:40.619Z,30.83
2023-01-26T01:52:41.175Z,43.17
2023-01-26T01:56:40.640Z,40.3
2023-01-26T02:00:40.630Z,38.37
2023-01-26T02:04:40.525Z,37.97
2023-01-26T02:08:40.607Z,41.2
2023-01-26T02:12:40.554Z,36.7
2023-01-26T02:16:40.614Z,34.77
2023-01-26T02:20:40.124Z,39.5
2023-01-26T02:24:40.651Z,30.2
2023-01-26T02:28:40.179Z,34.4
2023-01-26T02:32:41.169Z,34.53
2023-01-26T02:36:40.469Z,36.6
2023-01-26T02:40:40.723Z,34
2023-01-26T02:44:40.247Z,39.3
2023-01-26T02:48:40.515Z,47.13
2023-01-26T02:52:40.723Z,46.13
2023-01-26T02:56:40.623Z,34.03
2023-01-26T03:00:40.746Z,38.5
2023-01-26T03:04:40.447Z,34.6
2023-01-26T03:08:40.419Z,34.97
2023-01-26T03:12:40.898Z,25.8
2023-01-26T03:16:40.573Z,38.1
2023-01-26T03:20:40.535Z,35.57
2023-01-26T03:24:40.540Z,30.73
2023-01-26T03:28:40.683Z,31.8
2023-01-26T03:32:40.548Z,45.53
2023-01-26T03:36:40.480Z,36.87
2023-01-26T03:40:40.668Z,40
2023-01-26T03:44:40.552Z,36
2023-01-26T03:48:40.048Z,33.57
2023-01-26T03:52:41.234Z,31.47
2023-01-26T03:56:40.519Z,36.63
2023-01-26T04:00:40.627Z,26.03
2023-01-26T04:04:40.579Z,32.37
2023-01-26T04:08:40.481Z,33.63
2023-01-26T04:12:40.634Z,32.43
2023-01-26T04:16:39.816Z,26.3
2023-01-26T04:20:41.089Z,34.17
2023-01-26T04:24:40.551Z,25.03
2023-01-26T04:28:40.518Z,29.5
2023-01-26T04:32:41.060Z,22.5
2023-01-26T04:36:40.628Z,26.07
2023-01-26T04:40:40.463Z,22.03
2023-01-26T04:44:40.295Z,30.33
2023-01-26T04:48:40.863Z,32.63
2023-01-26T04:52:40.619Z,24.87
2023-01-26T04:56:40.716Z,23.13
2023-01-26T05:00:41.003Z,27.03
2023-01-26T05:04:40.357Z,32.37
2023-01-26T05:08:40.521Z,28.63
2023-01-26T05:12:40.603Z,30.6
2023-01-26T05:16:40.565Z,29.23
2023-01-26T05:20:40.608Z,30.5
2023-01-26T05:24:39.538Z,26.4
2023-01-26T05:28:40.466Z,32.23
2023-01-26T05:32:40.714Z,33.43
2023-01-26T05:36:40.836Z,30.33
2023-01-26T05:40:40.690Z,28.87
2023-01-26T05:44:40.559Z,35.2
2023-01-26T05:48:40.505Z,24.97
2023-01-26T05:52:40.452Z,31.23
2023-01-26T05:56:40.309Z,27.73
2023-01-26T06:00:41.511Z,34.9
2023-01-26T06:04:39.624Z,34.1
2023-01-26T06:08:40.596Z,28.4
2023-01-26T06:12:40.583Z,36.47
2023-01-26T06:16:40.566Z,30.57
2023-01-26T06:20:41.889Z,33.97
2023-01-26T06:24:40.995Z,33.03
2023-01-26T06:28:40.882Z,44.6
2023-01-26T06:32:39.790Z,37.43
2023-01-26T06:36:40.491Z,24.23
2023-01-26T06:40:40.788Z,34.17
2023-01-26T06:44:40.621Z,37.43
2023-01-26T06:48:40.550Z,29
2023-01-26T06:52:42.245Z,30.53
2023-01-26T06:56:40.296Z,38.2
2023-01-26T07:00:40.547Z,35.97
2023-01-26T07:04:40.494Z,41.07
2023-01-26T07:08:40.545Z,45.77
2023-01-26T07:12:40.570Z,37
2023-01-26T07:16:40.688Z,39
2023-01-26T07:20:40.656Z,41.43
2023-01-26T07:24:40.687Z,36.93
2023-01-26T07:28:40.610Z,40.4
2023-01-26T07:32:40.984Z,29.23
2023-01-26T07:36:40.495Z,36.2
2023-01-26T07:40:40.590Z,30.77
2023-01-26T07:44:40.552Z,43
2023-01-26T07:48:40.599Z,46.67
2023-01-26T07:52:41.043Z,53.07
2023-01-26T07:56:40.458Z,45.63
2023-01-26T08:00:40.351Z,47.97
2023-01-26T08:04:41.211Z,47
2023-01-26T08:08:40.592Z,46.63
2023-01-26T08:12:41.358Z,45.6
2023-01-26T08:16:40.321Z,46.63
2023-01-26T08:20:40.524Z,41.83
2023-01-26T08:24:40.719Z,46.83
2023-01-26T08:28:40.498Z,48.97
2023-01-26T08:32:40.575Z,41.03
2023-01-26T08:36:40.527Z,53.2
2023-01-26T08:40:40.800Z,49.83
2023-01-26T08:44:40.511Z,52.9
2023-01-26T08:48:40.908Z,43.97
2023-01-26T08:52:40.544Z,46.87
2023-01-26T08:56:40.441Z,45.07
2023-01-26T09:00:40.532Z,50.1
2023-01-26T09:04:40.850Z,43.07
2023-01-26T09:08:40.690Z,42.2
2023-01-26T09:12:41.215Z,32.8
2023-01-26T09:16:40.575Z,35.2
2023-01-26T09:20:41.116Z,39.9
2023-01-26T09:24:40.664Z,24.77
2023-01-26T09:28:40.991Z,32.1
2023-01-26T09:32:40.918Z,45.73
2023-01-26T09:36:41.577Z,34.03
2023-01-26T09:40:40.753Z,40.63
2023-01-26T09:44:41.171Z,32.87
2023-01-26T09:48:40.851Z,35.2
2023-01-26T09:52:40.531Z,37
2023-01-26T09:56:40.548Z,35.53
2023-01-26T10:00:41.023Z,32
2023-01-26T10:04:40.480Z,35.53
2023-01-26T10:08:40.301Z,40.63
2023-01-26T10:12:41.341Z,38.2
2023-01-26T10:16:40.658Z,30.13
2023-01-26T10:20:40.448Z,32.37
2023-01-26T10:24:40.612Z,43.07
2023-01-26T10:28:40.325Z,37.73
2023-01-26T10:32:40.674Z,43.57
2023-01-26T10:36:41.194Z,36.23
2023-01-26T10:40:39.707Z,43.8
2023-01-26T10:44:41.123Z,38.37
2023-01-26T10:48:40.655Z,45.9
2023-01-26T10:52:40.932Z,48
2023-01-26T10:56:40.274Z,50.37
2023-01-26T11:00:40.763Z,43.33
2023-01-26T11:04:40.556Z,53.33
2023-01-26T11:08:40.581Z,49.07
2023-01-26T11:12:41.099Z,60.17
2023-01-26T11:16:40.641Z,49.6
2023-01-26T11:20:40.557Z,41.9
2023-01-26T11:24:42.520Z,48.9
2023-01-26T11:28:40.626Z,35.17
2023-01-26T11:32:41.053Z,43.83
2023-01-26T11:36:40.635Z,49.3
2023-01-26T11:40:40.566Z,41.13
2023-01-26T11:44:40.477Z,35.2
2023-01-26T11:48:40.545Z,51.33
2023-01-26T11:52:40.551Z,52.73
2023-01-26T11:56:40.527Z,46.4
2023-01-26T12:00:40.783Z,47
2023-01-26T12:04:40.544Z,61.2
2023-01-26T12:08:40.927Z,47.83
2023-01-26T12:12:40.567Z,44.93
2023-01-26T12:16:40.405Z,49.63
2023-01-26T12:20:40.673Z,43.3
2023-01-26T12:25:08.354Z,32.63
2023-01-26T12:28:40.605Z,41.03
2023-01-26T12:32:40.565Z,38.7
2023-01-26T12:36:40.451Z,42.23
2023-01-26T12:40:40.570Z,36.57
2023-01-26T12:44:39.423Z,36.37
2023-01-26T12:48:40.463Z,31.03
2023-01-26T12:52:40.559Z,32.13
2023-01-26T12:56:40.910Z,31.63
2023-01-26T13:00:40.273Z,33.57
2023-01-26T13:04:39.562Z,29.17
2023-01-26T13:08:40.643Z,38.03
2023-01-26T13:12:40.535Z,34.37
2023-01-26T13:16:40.609Z,31.73
2023-01-26T13:20:40.553Z,30.93
2023-01-26T13:24:40.520Z,45.97
2023-01-26T13:28:40.568Z,50.6
2023-01-26T13:32:40.474Z,44.67
2023-01-26T13:36:41.199Z,43.2
2023-01-26T13:40:40.550Z,45.4
2023-01-26T13:44:40.513Z,43.03
2023-01-26T13:48:40.536Z,40.9
2023-01-26T13:52:40.935Z,59
2023-01-26T13:56:40.297Z,39.97
2023-01-26T14:00:40.803Z,35.13
2023-01-26T14:04:40.351Z,49.07
2023-01-26T14:08:41.075Z,46.3
2023-01-26T14:12:40.591Z,44.27
2023-01-26T14:16:39.914Z,48.8
2023-01-26T14:20:41.276Z,48.43
2023-01-26T14:24:39.542Z,53.37
2023-01-26T14:28:40.568Z,47.3
2023-01-26T14:32:40.415Z,43.23
2023-01-26T14:36:40.599Z,42.83
2023-01-26T14:40:40.577Z,48.6
2023-01-26T14:44:40.813Z,50.83
2023-01-26T14:48:40.584Z,46.13
2023-01-26T14:52:40.735Z,43.53
2023-01-26T14:56:40.618Z,54.97
2023-01-26T15:00:40.863Z,40.23
2023-01-26T15:04:40.092Z,45.87
2023-01-26T15:08:41.141Z,44.57
2023-01-26T15:12:40.988Z,54.27
2023-01-26T15:16:40.785Z,52.13
2023-01-26T15:20:40.925Z,45.6
2023-01-26T15:24:40.600Z,46.83
2023-01-26T15:28:40.874Z,48.97
2023-01-26T15:32:41.102Z,44.93
2023-01-26T15:36:40.567Z,41.9
2023-01-26T15:40:41.100Z,59.23
2023-01-26T15:44:40.450Z,49.9
2023-01-26T15:48:40.684Z,41.63
2023-01-26T15:52:40.650Z,43.53
2023-01-26T15:56:40.527Z,44.3
2023-01-26T16:00:40.811Z,45.87
2023-01-26T16:04:40.626Z,39.17
2023-01-26T16:08:40.537Z,47.73
2023-01-26T16:12:40.552Z,43
2023-01-26T16:16:40.761Z,46.7
2023-01-26T16:20:41.022Z,36.7
2023-01-26T16:24:40.600Z,36.07
2023-01-26T16:28:40.854Z,41.33
2023-01-26T16:32:40.686Z,48.53
2023-01-26T16:36:40.612Z,39.57
2023-01-26T16:40:40.539Z,44.23
2023-01-26T16:44:40.478Z,29.4
2023-01-26T16:48:40.218Z,36.1
2023-01-26T16:52:41.263Z,26.13
2023-01-26T16:56:40.262Z,25
2023-01-26T17:00:40.581Z,31.13
2023-01-26T17:04:40.524Z,34.33
2023-01-26T17:08:40.566Z,34.27
2023-01-26T17:12:40.483Z,31.2
2023-01-26T17:16:40.728Z,35.27
2023-01-26T17:20:40.433Z,30.1
2023-01-26T17:24:41.080Z,27.23
2023-01-26T17:28:40.740Z,26.2
2023-01-26T17:32:40.630Z,24.37
2023-01-26T17:36:40.682Z,22.93
2023-01-26T17:40:41.205Z,34.83
2023-01-26T17:44:41.226Z,35.3
2023-01-26T17:48:40.603Z,26.37
2023-01-26T17:52:40.450Z,25.97
2023-01-26T17:56:40.439Z,32.53
2023-01-26T18:00:40.662Z,31.07
2023-01-26T18:04:40.510Z,36.07
2023-01-26T18:08:40.542Z,24.97
2023-01-26T18:12:40.786Z,31
2023-01-26T18:16:40.604Z,29.93
2023-01-26T18:20:40.524Z,31.9
2023-01-26T18:24:40.608Z,42.53
2023-01-26T18:28:40.545Z,38.7
2023-01-26T18:32:40.131Z,34.37
2023-01-26T18:36:41.061Z,31.3
2023-01-26T18:40:41.235Z,45.7
2023-01-26T18:44:40.536Z,37.9
2023-01-26T18:48:40.454Z,52.83
2023-01-26T18:52:40.668Z,35
2023-01-26T18:56:40.513Z,39.6
2023-01-26T19:00:40.674Z,42.53
2023-01-26T19:04:39.853Z,37.9
2023-01-26T19:08:40.535Z,41.37
2023-01-26T19:12:41.167Z,39.77
2023-01-26T19:16:41.230Z,40.5
2023-01-26T19:20:40.803Z,32.07
2023-01-26T19:24:40.669Z,30.67
2023-01-26T19:28:40.564Z,35.47
2023-01-26T19:32:40.581Z,37.03
2023-01-26T19:36:40.458Z,36
2023-01-26T19:40:40.873Z,36.27
2023-01-26T19:44:40.533Z,29.7
2023-01-26T19:48:40.631Z,28.03
2023-01-26T19:52:40.408Z,31.5
2023-01-26T19:56:40.534Z,23.4
2023-01-26T20:00:40.654Z,28.1
2023-01-26T20:04:40.668Z,29.67
2023-01-26T20:08:40.711Z,29.4
2023-01-26T20:12:40.493Z,17.23
2023-01-26T20:16:40.656Z,25.97
2023-01-26T20:20:40.721Z,28.2
2023-01-26T20:24:40.999Z,30.4
2023-01-26T20:28:40.187Z,26.83
2023-01-26T20:32:39.486Z,28.07
2023-01-26T20:36:40.464Z,24.13
2023-01-26T20:40:40.587Z,24.8
2023-01-26T20:44:43.285Z,27.87
2023-01-26T20:48:40.610Z,28.53
2023-01-26T20:52:43.463Z,34.57
2023-01-26T20:56:40.452Z,29.23
2023-01-26T21:00:40.775Z,27.67
2023-01-26T21:04:40.618Z,30.63
2023-01-26T21:08:40.428Z,24.9
2023-01-26T21:12:40.754Z,27.43
2023-01-26T21:16:40.347Z,23.57
2023-01-26T21:20:39.947Z,26.67
2023-01-26T21:24:39.312Z,25.33
2023-01-26T21:28:40.690Z,23.83
2023-01-26T21:32:40.516Z,23.83
2023-01-26T21:36:40.403Z,21.1
2023-01-26T21:40:40.560Z,21.4
2023-01-26T21:44:40.678Z,24.6
2023-01-26T21:48:40.736Z,20.67
2023-01-26T21:52:40.862Z,22
2023-01-26T21:56:40.494Z,18.07
2023-01-26T22:00:40.563Z,20.87
2023-01-26T22:04:40.545Z,21.37
2023-01-26T22:08:40.627Z,22
2023-01-26T22:12:41.307Z,19.93
2023-01-26T22:16:41.170Z,21.23
2023-01-26T22:20:40.585Z,20.77
2023-01-26T22:24:40.524Z,21.13
2023-01-26T22:28:40.503Z,24.07
2023-01-26T22:32:40.349Z,25.23
2023-01-26T22:36:41.229Z,23.57
2023-01-26T22:40:40.433Z,23.37
2023-01-26T22:44:40.603Z,19.43
2023-01-26T22:48:40.818Z,23.37
2023-01-26T22:52:40.885Z,20.07
2023-01-26T22:56:40.384Z,23.4
2023-01-26T23:00:40.448Z,21.03
2023-01-26T23:04:40.816Z,21.1
2023-01-26T23:08:40.685Z,25.73
2023-01-26T23:12:40.799Z,26.83
2023-01-26T23:16:40.573Z,26.13
2023-01-26T23:20:40.795Z,23.97
2023-01-26T23:24:40.548Z,28.5
2023-01-26T23:28:40.591Z,27.13
2023-01-26T23:32:40.731Z,26.87
2023-01-26T23:36:39.576Z,32.8
2023-01-26T23:40:40.659Z,31.6
2023-01-26T23:44:40.291Z,41.73
2023-01-26T23:48:40.959Z,30.73
2023-01-26T23:52:40.522Z,34.37
2023-01-26T23:56:40.549Z,29.73
